Mount Moriah, Missouri
Current Conditions -  °F | °C
As of 3:53 PM on Tuesday 21 Oct 2014 (Local Time) from KLWD Reporting Station
Clear Clear  
Wind Chill: 69°   Ceiling: Unl
Heat Index: 69°   Visibility: 10mi
Dew Point: 45°   Wind: 5mph
Humidity: 42%   Direction: 110°ESE
Pressure: 30.09"   Gusts: NA
Location:  40.33°N, 93.8°W
Report Text: KLWD 212053Z AUTO 11004KT 10SM CLR 21/07 A3009 RMK AO2 SLP190 T02060072 56010
Loading
Personal Weather Stations






























Interactive Weather Map
Tropical Storm Tracking
New forecast layout! Learn more

10-Day Weather Forecast

Advertisements
Track Severe Weather on mobile